createdAt,value
2023-03-31T00:00:16.447Z,70.60
2023-03-31T00:04:24.465Z,70.80
2023-03-31T00:08:35.656Z,70.80
2023-03-31T00:12:38.955Z,70.70
2023-03-31T00:16:41.506Z,70.60
2023-03-31T00:20:45.583Z,69.90
2023-03-31T00:24:48.615Z,69.50
2023-03-31T00:28:51.573Z,69.60
2023-03-31T00:32:59.847Z,69.70
2023-03-31T00:37:02.661Z,69.80
2023-03-31T00:41:06.711Z,69.80
2023-03-31T00:45:16.467Z,69.70
2023-03-31T00:49:24.108Z,69.50
2023-03-31T00:53:29.471Z,69.30
2023-03-31T00:57:34.433Z,69.20
2023-03-31T01:01:48.882Z,69.40
2023-03-31T01:05:54.889Z,69.30
2023-03-31T01:09:59.266Z,69.40
2023-03-31T01:14:03.350Z,69.50
2023-03-31T01:18:06.661Z,69.70
2023-03-31T01:22:27.306Z,69.60
2023-03-31T01:26:50.812Z,69.50
2023-03-31T01:31:11.967Z,71.00
2023-03-31T01:35:21.105Z,73.20
2023-03-31T01:39:42.959Z,73.90
2023-03-31T01:44:04.127Z,73.50
2023-03-31T01:48:18.316Z,73.30
2023-03-31T01:52:21.478Z,73.40
2023-03-31T01:56:33.356Z,73.40
2023-03-31T02:00:38.213Z,73.30
2023-03-31T02:04:43.246Z,73.10
2023-03-31T02:08:48.354Z,73.00
2023-03-31T02:12:51.506Z,73.10
2023-03-31T02:16:58.697Z,72.90
2023-03-31T02:21:01.408Z,72.90
2023-03-31T02:25:04.843Z,72.70
2023-03-31T02:29:07.459Z,72.60
2023-03-31T02:33:10.615Z,72.40
2023-03-31T02:37:14.824Z,72.20
2023-03-31T02:41:20.726Z,72.00
2023-03-31T02:45:42.431Z,72.10
2023-03-31T02:49:47.917Z,72.00
2023-03-31T02:54:01.153Z,71.90
2023-03-31T02:58:37.987Z,71.70
2023-03-31T03:02:43.839Z,71.70
2023-03-31T03:07:00.249Z,71.80
2023-03-31T03:11:12.689Z,71.80
2023-03-31T03:15:23.002Z,72.10
2023-03-31T03:19:30.352Z,72.20
2023-03-31T03:23:33.184Z,72.60
2023-03-31T03:27:36.054Z,72.20
2023-03-31T03:31:39.128Z,72.20
2023-03-31T03:35:41.701Z,72.20
2023-03-31T03:39:44.573Z,72.20
2023-03-31T03:43:47.153Z,72.20
2023-03-31T03:47:50.439Z,72.10
2023-03-31T03:51:53.087Z,72.00
2023-03-31T03:55:56.193Z,72.20
2023-03-31T03:59:58.794Z,72.30
2023-03-31T04:04:07.971Z,72.40
2023-03-31T04:08:11.727Z,72.60
2023-03-31T04:12:14.328Z,72.60
2023-03-31T04:16:17.171Z,72.70
2023-03-31T04:20:19.839Z,72.80
2023-03-31T04:24:22.596Z,72.80
2023-03-31T04:28:26.716Z,72.70
2023-03-31T04:32:33.139Z,72.70
2023-03-31T04:36:36.080Z,72.80
2023-03-31T04:40:40.060Z,72.80
2023-03-31T04:44:44.362Z,72.70
2023-03-31T04:48:47.019Z,72.80
2023-03-31T04:52:49.576Z,72.60
2023-03-31T04:56:53.163Z,72.40
2023-03-31T05:00:55.886Z,72.30
2023-03-31T05:05:00.605Z,72.20
2023-03-31T05:09:03.396Z,72.00
2023-03-31T05:13:05.920Z,72.10
2023-03-31T05:17:09.694Z,72.00
2023-03-31T05:21:13.972Z,72.00
2023-03-31T05:25:18.761Z,72.00
2023-03-31T05:29:22.123Z,71.90
2023-03-31T05:33:24.683Z,71.70
2023-03-31T05:37:27.210Z,71.60
2023-03-31T05:41:30.174Z,71.90
2023-03-31T05:45:32.983Z,71.90
2023-03-31T05:49:35.848Z,71.80
2023-03-31T05:53:38.755Z,71.80
2023-03-31T05:57:41.847Z,71.80
2023-03-31T06:01:44.451Z,71.80
2023-03-31T06:05:47.968Z,72.20
2023-03-31T06:09:50.523Z,72.30
2023-03-31T06:13:53.090Z,72.40
2023-03-31T06:17:55.837Z,72.60
2023-03-31T06:21:58.462Z,72.70
2023-03-31T06:26:08.450Z,74.20
2023-03-31T06:30:11.288Z,75.30
2023-03-31T06:34:15.172Z,75.80
2023-03-31T06:38:19.965Z,76.00
2023-03-31T06:42:22.796Z,75.90
2023-03-31T06:46:25.777Z,75.50
2023-03-31T06:50:28.338Z,75.40
2023-03-31T06:54:33.478Z,75.40
2023-03-31T06:58:36.666Z,75.20
2023-03-31T07:02:39.655Z,75.10
2023-03-31T07:06:42.738Z,75.00
2023-03-31T07:10:48.956Z,74.90
2023-03-31T07:14:51.750Z,74.70
2023-03-31T07:18:59.576Z,74.40
2023-03-31T07:23:04.550Z,74.30
2023-03-31T07:27:11.066Z,74.00
2023-03-31T07:31:14.447Z,73.90
2023-03-31T07:35:17.181Z,73.60
2023-03-31T07:39:19.792Z,73.50
2023-03-31T07:43:22.303Z,73.40
2023-03-31T07:47:24.954Z,73.00
2023-03-31T07:51:27.637Z,72.70
2023-03-31T07:55:30.521Z,72.50
2023-03-31T07:59:33.317Z,72.40
2023-03-31T08:03:36.384Z,72.30
2023-03-31T08:07:40.378Z,72.10
2023-03-31T08:11:44.823Z,72.00
2023-03-31T08:15:48.588Z,71.90
2023-03-31T08:19:52.278Z,71.80
2023-03-31T08:23:55.640Z,71.60
2023-03-31T08:27:58.315Z,71.20
2023-03-31T08:32:00.985Z,70.90
2023-03-31T08:36:09.559Z,71.10
2023-03-31T08:40:18.800Z,70.70
2023-03-31T08:44:26.774Z,70.60
2023-03-31T08:48:38.819Z,70.60
2023-03-31T08:52:48.780Z,69.90
2023-03-31T08:56:52.087Z,70.00
2023-03-31T09:00:59.724Z,70.00
2023-03-31T09:05:02.388Z,69.70
2023-03-31T09:09:08.344Z,69.70
2023-03-31T09:13:26.462Z,69.70
2023-03-31T09:17:29.028Z,69.50
2023-03-31T09:21:31.666Z,69.10
2023-03-31T09:25:36.010Z,68.80
2023-03-31T09:29:43.422Z,68.70
2023-03-31T09:33:46.783Z,68.80
2023-03-31T09:37:49.739Z,68.20
2023-03-31T09:41:54.039Z,68.20
2023-03-31T09:46:09.383Z,68.30
2023-03-31T09:50:13.438Z,67.80
2023-03-31T09:54:25.108Z,67.80
2023-03-31T09:58:29.007Z,67.70
2023-03-31T10:02:40.662Z,67.80
2023-03-31T10:06:43.336Z,67.70
2023-03-31T10:10:48.507Z,67.50
2023-03-31T10:14:52.940Z,67.50
2023-03-31T10:18:57.387Z,67.40
2023-03-31T10:23:02.803Z,67.30
2023-03-31T10:27:06.460Z,67.60
2023-03-31T10:31:11.453Z,67.60
2023-03-31T10:35:27.909Z,67.70
2023-03-31T10:39:32.858Z,67.80
2023-03-31T10:43:38.445Z,68.00
2023-03-31T10:47:41.430Z,68.10
2023-03-31T10:51:54.137Z,68.00
2023-03-31T10:56:29.184Z,68.00
2023-03-31T11:00:32.926Z,67.90
2023-03-31T11:04:47.787Z,68.00
2023-03-31T11:09:10.666Z,67.80
2023-03-31T11:13:20.096Z,67.70
2023-03-31T11:17:28.807Z,67.70
2023-03-31T11:21:31.376Z,67.60
2023-03-31T11:25:49.027Z,67.50
2023-03-31T11:30:00.824Z,67.50
2023-03-31T11:34:13.752Z,67.30
2023-03-31T11:38:35.944Z,67.20
2023-03-31T11:42:42.520Z,67.10
2023-03-31T11:46:51.844Z,67.20
2023-03-31T11:50:55.083Z,67.20
2023-03-31T11:54:57.698Z,66.90
2023-03-31T11:59:00.740Z,66.70
2023-03-31T12:03:07.979Z,66.50
2023-03-31T12:07:11.317Z,66.20
2023-03-31T12:11:22.440Z,65.90
2023-03-31T12:15:27.645Z,65.60
2023-03-31T12:19:37.412Z,65.40
2023-03-31T12:23:46.629Z,65.30
2023-03-31T12:27:50.678Z,65.40
2023-03-31T12:31:56.235Z,65.60
2023-03-31T12:36:01.954Z,65.60
2023-03-31T12:40:14.838Z,65.50
2023-03-31T12:44:26.724Z,65.20
2023-03-31T12:48:32.643Z,64.90
2023-03-31T12:52:35.268Z,64.80
2023-03-31T12:56:56.576Z,64.40
2023-03-31T13:01:07.354Z,64.20
2023-03-31T13:05:29.637Z,63.90
2023-03-31T13:09:39.772Z,63.60
2023-03-31T13:14:02.438Z,63.20
2023-03-31T13:18:06.488Z,63.10
2023-03-31T13:22:28.078Z,62.80
2023-03-31T13:26:33.853Z,62.10
2023-03-31T13:30:36.891Z,61.80
2023-03-31T13:35:05.875Z,61.80
2023-03-31T13:39:20.948Z,61.90
2023-03-31T13:43:32.790Z,61.90
2023-03-31T13:47:41.499Z,62.10
2023-03-31T13:51:53.647Z,62.00
2023-03-31T13:56:15.597Z,62.00
2023-03-31T14:00:21.359Z,62.10
2023-03-31T14:04:31.087Z,61.90
2023-03-31T14:08:39.662Z,62.10
2023-03-31T14:12:44.447Z,62.00
2023-03-31T14:16:55.885Z,62.10
2023-03-31T14:21:12.201Z,62.40
2023-03-31T14:25:34.988Z,62.60
2023-03-31T14:29:37.595Z,62.60
2023-03-31T14:33:49.279Z,62.60
2023-03-31T14:37:52.236Z,62.50
2023-03-31T14:41:57.016Z,62.40
2023-03-31T14:46:04.708Z,62.10
2023-03-31T14:50:17.760Z,62.10
2023-03-31T14:54:21.039Z,62.00
2023-03-31T14:58:27.015Z,61.90
2023-03-31T15:02:31.986Z,61.80
2023-03-31T15:06:34.722Z,61.50
2023-03-31T15:10:42.958Z,61.20
2023-03-31T15:14:47.941Z,61.00
2023-03-31T15:18:53.943Z,60.90
2023-03-31T15:22:57.510Z,60.60
2023-03-31T15:27:09.891Z,60.30
2023-03-31T15:31:13.942Z,59.30
2023-03-31T15:35:22.715Z,58.80
2023-03-31T15:39:26.875Z,57.90
2023-03-31T15:43:50.885Z,58.10
2023-03-31T15:47:55.504Z,58.20
2023-03-31T15:52:00.596Z,58.20
2023-03-31T15:56:03.356Z,57.20
2023-03-31T16:00:08.047Z,57.20
2023-03-31T16:04:16.969Z,56.40
2023-03-31T16:08:24.977Z,56.30
2023-03-31T16:12:28.509Z,56.30
2023-03-31T16:16:32.009Z,56.90
2023-03-31T16:20:40.731Z,56.70
2023-03-31T16:24:43.423Z,56.60
2023-03-31T16:28:49.388Z,56.90
2023-03-31T16:33:18.978Z,55.40
2023-03-31T16:37:22.296Z,56.00
2023-03-31T16:41:27.156Z,56.30
2023-03-31T16:45:29.686Z,56.80
2023-03-31T16:49:32.246Z,57.30
2023-03-31T16:53:37.801Z,57.70
2023-03-31T16:57:40.704Z,58.00
2023-03-31T17:01:43.542Z,58.40
2023-03-31T17:05:47.656Z,58.80
2023-03-31T17:09:50.438Z,59.10
2023-03-31T17:13:54.855Z,59.50
2023-03-31T17:17:59.145Z,59.80
2023-03-31T17:22:03.649Z,59.90
2023-03-31T17:26:07.231Z,60.10
2023-03-31T17:30:10.122Z,60.50
2023-03-31T17:34:12.890Z,60.90
2023-03-31T17:38:15.880Z,61.30
2023-03-31T17:42:20.629Z,61.90
2023-03-31T17:46:23.262Z,62.30
2023-03-31T17:50:26.564Z,62.80
2023-03-31T17:54:29.279Z,63.00
2023-03-31T17:58:32.494Z,63.10
2023-03-31T18:02:39.224Z,63.00
2023-03-31T18:06:42.417Z,63.10
2023-03-31T18:10:48.067Z,63.10
2023-03-31T18:14:51.146Z,63.20
2023-03-31T18:23:45.679Z,63.60
2023-03-31T18:27:51.487Z,64.00
2023-03-31T18:32:00.072Z,64.70
2023-03-31T18:36:05.335Z,64.80
2023-03-31T18:40:08.336Z,64.70
2023-03-31T18:44:11.567Z,64.80
2023-03-31T18:48:17.505Z,64.60
2023-03-31T18:52:20.606Z,64.70
2023-03-31T18:56:45.029Z,64.60
2023-03-31T19:01:13.477Z,64.80
2023-03-31T19:05:20.674Z,64.80
2023-03-31T19:09:27.822Z,64.90
2023-03-31T19:13:33.980Z,65.70
2023-03-31T19:17:38.378Z,66.40
2023-03-31T19:21:41.812Z,66.60
2023-03-31T19:25:46.145Z,67.00
2023-03-31T19:34:28.310Z,67.60
2023-03-31T19:39:12.644Z,68.00
2023-03-31T19:43:20.957Z,68.10
2023-03-31T19:47:25.947Z,68.80
2023-03-31T19:51:29.809Z,69.20
2023-03-31T19:55:34.314Z,69.60
2023-03-31T19:59:36.848Z,69.50
2023-03-31T20:03:39.617Z,69.60
2023-03-31T20:07:42.575Z,69.70
2023-03-31T20:11:45.631Z,69.80
2023-03-31T20:15:48.738Z,69.90
2023-03-31T20:19:53.618Z,69.70
2023-03-31T20:23:59.771Z,69.60
2023-03-31T20:28:02.897Z,69.60
2023-03-31T20:32:06.384Z,69.50
2023-03-31T20:36:14.217Z,69.40
2023-03-31T20:40:17.007Z,69.30
2023-03-31T20:44:20.288Z,69.30
2023-03-31T20:48:23.439Z,69.40
2023-03-31T20:52:27.449Z,69.50
2023-03-31T20:56:30.516Z,69.50
2023-03-31T21:00:33.399Z,69.70
2023-03-31T21:04:36.255Z,70.00
2023-03-31T21:08:39.407Z,70.20
2023-03-31T21:12:46.299Z,70.60
2023-03-31T21:16:49.869Z,70.90
2023-03-31T21:20:53.771Z,71.10
2023-03-31T21:24:56.840Z,71.40
2023-03-31T21:29:00.450Z,71.30
2023-03-31T21:33:03.194Z,71.30
2023-03-31T21:37:05.987Z,71.40
2023-03-31T21:41:10.841Z,71.50
2023-03-31T21:45:13.585Z,71.40
2023-03-31T21:49:17.434Z,71.20
2023-03-31T21:53:22.120Z,70.90
2023-03-31T21:57:26.270Z,71.00
2023-03-31T22:01:28.953Z,71.10
2023-03-31T22:05:33.067Z,71.20
2023-03-31T22:09:35.972Z,71.30
2023-03-31T22:13:39.003Z,71.30
2023-03-31T22:17:41.990Z,71.10
2023-03-31T22:21:45.121Z,71.20
2023-03-31T22:25:48.496Z,71.10
2023-03-31T22:29:51.520Z,71.10
2023-03-31T22:33:54.307Z,71.10
2023-03-31T22:37:57.111Z,70.80
2023-03-31T22:41:59.824Z,70.60
2023-03-31T22:46:05.880Z,70.40
2023-03-31T22:50:12.177Z,70.20
2023-03-31T22:54:15.803Z,69.90
2023-03-31T22:58:18.482Z,69.90
2023-03-31T23:02:21.152Z,69.70
2023-03-31T23:06:23.944Z,69.40
2023-03-31T23:10:27.328Z,69.00
2023-03-31T23:14:30.019Z,68.70
2023-03-31T23:18:33.418Z,68.30
2023-03-31T23:22:36.575Z,68.10
2023-03-31T23:26:39.425Z,68.10
2023-03-31T23:30:42.207Z,68.00
2023-03-31T23:34:45.781Z,68.10
2023-03-31T23:38:49.317Z,68.30
2023-03-31T23:42:53.528Z,68.60
2023-03-31T23:46:56.618Z,68.70
2023-03-31T23:50:59.206Z,68.90
2023-03-31T23:55:02.530Z,68.90
2023-03-31T23:59:05.432Z,68.90
